createdAt,value
2023-03-25T00:02:09.062Z,8.02
2023-03-25T00:04:54.879Z,8.00
2023-03-25T00:07:40.781Z,13.27
2023-03-25T00:10:26.313Z,14.95
2023-03-25T00:13:13.625Z,12.82
2023-03-25T00:15:59.784Z,17.45
2023-03-25T00:18:48.002Z,18.67
2023-03-25T00:21:33.545Z,16.05
2023-03-25T00:24:18.521Z,16.27
2023-03-25T00:27:04.024Z,18.33
2023-03-25T00:29:49.062Z,22.95
2023-03-25T00:32:34.309Z,25.35
2023-03-25T00:35:20.509Z,19.20
2023-03-25T00:38:07.731Z,14.75
2023-03-25T00:40:53.122Z,24.98
2023-03-25T00:43:38.664Z,22.60
2023-03-25T00:46:27.030Z,32.97
2023-03-25T00:49:12.756Z,22.85
2023-03-25T00:51:57.703Z,27.40
2023-03-25T00:54:45.729Z,22.45
2023-03-25T00:57:31.407Z,22.60
2023-03-25T01:00:18.334Z,20.48
2023-03-25T01:03:04.147Z,29.17
2023-03-25T01:05:50.630Z,28.80
2023-03-25T01:08:35.917Z,27.40
2023-03-25T01:11:23.790Z,19.77
2023-03-25T01:14:24.255Z,24.67
2023-03-25T01:17:11.122Z,32.38
2023-03-25T01:19:56.131Z,22.48
2023-03-25T01:22:41.272Z,24.00
2023-03-25T01:25:26.193Z,19.00
2023-03-25T01:28:11.552Z,21.95
2023-03-25T01:31:02.016Z,21.08
2023-03-25T01:33:47.208Z,23.13
2023-03-25T01:36:32.633Z,23.42
2023-03-25T01:39:18.831Z,24.83
2023-03-25T01:42:04.380Z,19.27
2023-03-25T01:44:52.610Z,19.55
2023-03-25T01:47:38.079Z,23.40
2023-03-25T01:50:23.586Z,17.98
2023-03-25T01:53:10.293Z,28.08
2023-03-25T01:55:56.632Z,17.80
2023-03-25T01:58:44.083Z,16.77
2023-03-25T02:01:31.314Z,18.00
2023-03-25T02:04:27.236Z,13.25
2023-03-25T02:07:16.416Z,17.95
2023-03-25T02:10:06.695Z,15.63
2023-03-25T02:12:51.886Z,13.63
2023-03-25T02:15:59.409Z,16.75
2023-03-25T02:18:58.706Z,15.95
2023-03-25T02:22:21.574Z,17.23
2023-03-25T02:25:25.386Z,14.05
2023-03-25T02:28:11.741Z,21.42
2023-03-25T02:31:18.013Z,19.13
2023-03-25T02:34:33.698Z,14.05
2023-03-25T02:37:34.460Z,15.13
2023-03-25T02:40:41.946Z,16.20
2023-03-25T02:43:58.752Z,18.20
2023-03-25T02:46:50.132Z,16.85
2023-03-25T02:49:40.444Z,13.45
2023-03-25T02:52:38.124Z,21.70
2023-03-25T02:55:25.506Z,22.52
2023-03-25T02:58:13.550Z,11.82
2023-03-25T03:00:59.056Z,23.42
2023-03-25T03:03:44.213Z,12.35
2023-03-25T03:06:29.658Z,17.75
2023-03-25T03:09:38.022Z,20.23
2023-03-25T03:12:45.900Z,19.42
2023-03-25T03:15:40.642Z,9.32
2023-03-25T03:18:57.273Z,21.33
2023-03-25T03:22:01.266Z,13.38
2023-03-25T03:24:54.274Z,21.42
2023-03-25T03:27:49.858Z,18.48
2023-03-25T03:30:49.322Z,18.02
2023-03-25T03:33:53.662Z,14.80
2023-03-25T03:36:44.615Z,17.33
2023-03-25T03:39:36.024Z,18.02
2023-03-25T03:42:28.858Z,15.07
2023-03-25T03:45:27.452Z,14.10
2023-03-25T03:48:17.706Z,17.15
2023-03-25T03:51:09.289Z,27.92
2023-03-25T03:54:33.102Z,17.95
2023-03-25T03:57:22.298Z,20.30
2023-03-25T04:00:16.708Z,17.80
2023-03-25T04:03:05.004Z,21.30
2023-03-25T04:06:00.831Z,26.08
2023-03-25T04:09:00.629Z,16.15
2023-03-25T04:11:59.765Z,18.38
2023-03-25T04:14:45.536Z,18.70
2023-03-25T04:17:32.931Z,17.48
2023-03-25T04:20:26.226Z,19.55
2023-03-25T04:23:16.218Z,18.35
2023-03-25T04:28:47.876Z,17.73
2023-03-25T04:31:33.411Z,24.83
2023-03-25T04:34:20.560Z,12.73
2023-03-25T04:37:06.327Z,19.90
2023-03-25T04:39:51.914Z,19.10
2023-03-25T04:42:37.453Z,21.52
2023-03-25T04:45:22.593Z,18.65
2023-03-25T04:48:20.014Z,17.27
2023-03-25T04:51:05.198Z,18.88
2023-03-25T04:53:50.398Z,19.13
2023-03-25T04:56:36.777Z,17.65
2023-03-25T04:59:23.188Z,17.02
2023-03-25T05:02:13.492Z,18.00
2023-03-25T05:05:02.252Z,19.98
2023-03-25T05:07:49.457Z,20.58
2023-03-25T05:10:36.306Z,24.00
2023-03-25T05:13:21.683Z,15.05
2023-03-25T05:16:07.521Z,17.98
2023-03-25T05:18:53.067Z,17.40
2023-03-25T05:21:41.013Z,18.80
2023-03-25T05:24:26.303Z,12.65
2023-03-25T05:27:11.501Z,20.70
2023-03-25T05:30:00.337Z,18.77
2023-03-25T05:32:50.746Z,23.58
2023-03-25T05:35:42.823Z,24.30
2023-03-25T05:38:28.248Z,23.75
2023-03-25T05:41:16.934Z,24.60
2023-03-25T05:44:02.962Z,16.87
2023-03-25T05:46:47.951Z,13.60
2023-03-25T05:49:33.019Z,22.38
2023-03-25T05:52:19.708Z,27.42
2023-03-25T05:55:05.050Z,18.17
2023-03-25T05:57:50.446Z,20.58
2023-03-25T06:00:37.254Z,24.00
2023-03-25T06:03:26.156Z,15.18
2023-03-25T06:06:15.157Z,15.27
2023-03-25T06:09:00.392Z,20.90
2023-03-25T06:11:46.600Z,24.60
2023-03-25T06:14:31.557Z,23.70
2023-03-25T06:17:19.042Z,22.35
2023-03-25T06:20:12.663Z,20.17
2023-03-25T06:22:57.550Z,24.00
2023-03-25T06:25:43.112Z,24.20
2023-03-25T06:28:28.395Z,20.85
2023-03-25T06:31:20.516Z,18.67
2023-03-25T06:34:05.715Z,21.60
2023-03-25T06:36:54.077Z,19.30
2023-03-25T06:39:39.337Z,22.42
2023-03-25T06:42:24.329Z,16.65
2023-03-25T06:45:10.274Z,21.60
2023-03-25T06:47:55.554Z,22.10
2023-03-25T06:50:42.683Z,20.88
2023-03-25T06:53:29.312Z,23.10
2023-03-25T06:56:14.462Z,18.10
2023-03-25T06:58:59.912Z,23.60
2023-03-25T07:01:44.874Z,23.55
2023-03-25T07:04:30.540Z,18.23
2023-03-25T07:07:15.634Z,18.50
2023-03-25T07:10:01.213Z,22.08
2023-03-25T07:12:46.414Z,22.73
2023-03-25T07:15:31.591Z,18.92
2023-03-25T07:18:16.900Z,17.27
2023-03-25T07:21:01.906Z,27.13
2023-03-25T07:23:46.920Z,25.67
2023-03-25T07:26:32.013Z,20.10
2023-03-25T07:29:16.765Z,18.20
2023-03-25T07:32:02.028Z,21.85
2023-03-25T07:34:47.082Z,17.42
2023-03-25T07:37:32.380Z,16.48
2023-03-25T07:40:17.321Z,19.25
2023-03-25T07:43:02.641Z,17.33
2023-03-25T07:45:48.033Z,14.18
2023-03-25T07:48:33.415Z,14.57
2023-03-25T07:51:18.558Z,17.42
2023-03-25T07:54:04.976Z,21.67
2023-03-25T07:56:54.590Z,17.02
2023-03-25T07:59:40.446Z,17.92
2023-03-25T08:02:25.526Z,28.60
2023-03-25T08:05:10.878Z,21.70
2023-03-25T08:08:00.134Z,15.13
2023-03-25T08:10:47.320Z,24.02
2023-03-25T08:13:32.838Z,17.48
2023-03-25T08:16:18.408Z,17.13
2023-03-25T08:19:03.707Z,12.00
2023-03-25T08:21:49.010Z,16.55
2023-03-25T08:24:34.221Z,13.88
2023-03-25T08:27:19.640Z,15.57
2023-03-25T08:30:05.654Z,16.05
2023-03-25T08:32:54.634Z,15.25
2023-03-25T08:35:40.803Z,19.30
2023-03-25T08:38:31.895Z,20.30
2023-03-25T08:41:19.736Z,18.40
2023-03-25T08:44:06.076Z,13.90
2023-03-25T08:46:51.321Z,11.57
2023-03-25T08:49:36.267Z,10.40
2023-03-25T08:52:21.535Z,17.80
2023-03-25T08:55:12.220Z,17.30
2023-03-25T08:58:01.398Z,15.07
2023-03-25T09:00:47.114Z,18.23
2023-03-25T09:03:33.010Z,15.68
2023-03-25T09:06:18.387Z,12.07
2023-03-25T09:09:05.448Z,15.80
2023-03-25T09:11:50.494Z,15.10
2023-03-25T09:14:36.021Z,10.48
2023-03-25T09:17:21.439Z,13.43
2023-03-25T09:20:10.775Z,9.77
2023-03-25T09:22:57.622Z,15.45
2023-03-25T09:25:43.126Z,14.32
2023-03-25T09:28:28.660Z,13.93
2023-03-25T09:31:14.951Z,14.95
2023-03-25T09:34:01.333Z,11.82
2023-03-25T09:36:46.732Z,17.38
2023-03-25T09:39:31.958Z,12.30
2023-03-25T09:42:54.419Z,14.27
2023-03-25T09:45:43.126Z,14.52
2023-03-25T09:48:42.888Z,11.60
2023-03-25T09:51:30.866Z,26.00
2023-03-25T09:54:25.890Z,10.77
2023-03-25T09:57:17.501Z,12.43
2023-03-25T10:00:06.951Z,8.15
2023-03-25T10:03:18.719Z,10.07
2023-03-25T10:06:10.584Z,14.65
2023-03-25T10:08:58.579Z,9.98
2023-03-25T10:12:06.564Z,12.93
2023-03-25T10:15:16.738Z,11.35
2023-03-25T10:21:20.724Z,11.60
2023-03-25T10:24:14.963Z,9.00
2023-03-25T10:27:06.828Z,9.55
2023-03-25T10:30:04.714Z,8.32
2023-03-25T10:32:54.976Z,12.20
2023-03-25T10:35:47.719Z,9.77
2023-03-25T10:38:35.977Z,9.38
2023-03-25T10:41:31.227Z,13.05
2023-03-25T10:44:16.693Z,7.45
2023-03-25T10:47:06.691Z,11.10
2023-03-25T10:49:52.739Z,11.95
2023-03-25T10:52:37.989Z,8.48
2023-03-25T10:55:32.741Z,7.82
2023-03-25T10:58:19.001Z,9.43
2023-03-25T11:01:12.992Z,8.43
2023-03-25T11:04:00.679Z,11.00
2023-03-25T11:06:52.628Z,7.63
2023-03-25T11:09:38.933Z,9.98
2023-03-25T11:12:36.657Z,11.70
2023-03-25T11:15:35.247Z,17.95
2023-03-25T11:18:40.704Z,11.65
2023-03-25T11:21:30.418Z,8.75
2023-03-25T11:24:19.364Z,11.34
2023-03-25T11:27:08.262Z,8.45
2023-03-25T11:29:56.929Z,12.27
2023-03-25T11:32:42.794Z,7.57
2023-03-25T11:35:30.850Z,10.70
2023-03-25T11:38:32.468Z,11.48
2023-03-25T11:41:17.729Z,7.25
2023-03-25T11:44:05.268Z,10.25
2023-03-25T11:46:52.623Z,11.68
2023-03-25T11:49:41.350Z,9.73
2023-03-25T11:52:45.636Z,7.07
2023-03-25T11:55:36.252Z,8.75
2023-03-25T11:58:28.715Z,7.93
2023-03-25T12:01:36.789Z,8.02
2023-03-25T12:04:23.866Z,11.82
2023-03-25T12:07:10.324Z,6.85
2023-03-25T12:10:05.410Z,8.60
2023-03-25T12:13:11.695Z,7.03
2023-03-25T12:16:15.575Z,5.65
2023-03-25T12:19:38.677Z,7.85
2023-03-25T12:22:45.256Z,8.82
2023-03-25T12:26:04.547Z,8.55
2023-03-25T12:28:55.449Z,8.48
2023-03-25T12:32:01.429Z,5.82
2023-03-25T12:35:06.255Z,11.55
2023-03-25T12:38:13.299Z,6.25
2023-03-25T12:41:20.242Z,11.52
2023-03-25T12:44:23.895Z,7.03
2023-03-25T12:47:35.205Z,9.43
2023-03-25T12:50:46.104Z,7.75
2023-03-25T12:53:41.554Z,5.65
2023-03-25T12:56:54.445Z,10.27
2023-03-25T13:00:14.652Z,7.35
2023-03-25T13:03:02.942Z,7.78
2023-03-25T13:05:58.277Z,8.65
2023-03-25T13:09:09.705Z,6.25
2023-03-25T13:11:59.607Z,10.55
2023-03-25T13:15:00.383Z,7.35
2023-03-25T13:17:55.994Z,4.50
2023-03-25T13:20:49.538Z,5.38
2023-03-25T13:23:37.874Z,5.93
2023-03-25T13:26:27.042Z,8.52
2023-03-25T13:29:29.927Z,7.75
2023-03-25T13:32:23.436Z,7.13
2023-03-25T13:35:24.585Z,7.30
2023-03-25T13:38:19.624Z,8.98
2023-03-25T13:41:12.898Z,5.68
2023-03-25T13:44:04.289Z,6.38
2023-03-25T13:47:12.516Z,10.77
2023-03-25T13:50:01.663Z,8.82
2023-03-25T13:52:55.141Z,7.30
2023-03-25T13:56:08.767Z,8.15
2023-03-25T13:59:09.232Z,7.32
2023-03-25T14:02:31.983Z,9.27
2023-03-25T14:05:54.677Z,3.95
2023-03-25T14:09:21.347Z,8.30
2023-03-25T14:12:12.036Z,8.93
2023-03-25T14:15:26.626Z,5.25
2023-03-25T14:18:20.157Z,7.70
2023-03-25T14:21:27.258Z,5.00
2023-03-25T14:24:18.835Z,6.68
2023-03-25T14:27:26.508Z,4.57
2023-03-25T14:30:27.809Z,4.28
2023-03-25T14:33:12.985Z,3.58
2023-03-25T14:35:58.332Z,4.78
2023-03-25T14:38:57.740Z,5.13
2023-03-25T14:42:08.185Z,5.28
2023-03-25T14:44:56.433Z,7.30
2023-03-25T14:47:55.761Z,7.30
2023-03-25T14:50:41.085Z,4.93
2023-03-25T14:53:27.375Z,7.68
2023-03-25T14:56:19.393Z,5.00
2023-03-25T14:59:17.160Z,6.70
2023-03-25T15:02:30.569Z,5.85
2023-03-25T15:05:28.592Z,5.40
2023-03-25T15:08:17.651Z,7.57
2023-03-25T15:11:07.505Z,4.67
2023-03-25T15:14:03.258Z,5.00
2023-03-25T15:16:48.579Z,5.57
2023-03-25T15:20:26.526Z,8.38
2023-03-25T15:23:36.338Z,2.38
2023-03-25T15:26:28.723Z,8.02
2023-03-25T15:29:32.967Z,9.13
2023-03-25T15:32:27.313Z,5.18
2023-03-25T15:35:36.986Z,5.88
2023-03-25T15:38:47.521Z,4.85
2023-03-25T15:42:10.010Z,11.18
2023-03-25T15:45:13.585Z,5.47
2023-03-25T15:48:32.739Z,7.10
2023-03-25T15:51:41.597Z,8.43
2023-03-25T15:54:37.463Z,9.68
2023-03-25T15:57:41.473Z,10.50
2023-03-25T16:00:31.826Z,10.45
2023-03-25T16:03:21.784Z,13.30
2023-03-25T16:06:08.424Z,12.93
2023-03-25T16:08:57.799Z,12.95
2023-03-25T16:11:46.165Z,15.35
2023-03-25T16:14:33.526Z,15.88
2023-03-25T16:17:21.830Z,16.77
2023-03-25T16:20:09.706Z,14.43
2023-03-25T16:22:57.864Z,28.08
2023-03-25T16:25:45.984Z,15.35
2023-03-25T16:28:42.564Z,16.15
2023-03-25T16:31:34.504Z,15.98
2023-03-25T16:34:21.038Z,17.17
2023-03-25T16:37:07.524Z,14.02
2023-03-25T16:39:54.416Z,23.55
2023-03-25T16:42:39.698Z,17.13
2023-03-25T16:45:25.478Z,21.67
2023-03-25T16:48:21.764Z,25.98
2023-03-25T16:51:35.301Z,21.42
2023-03-25T16:54:36.598Z,22.75
2023-03-25T16:57:27.695Z,24.52
2023-03-25T17:00:23.101Z,33.22
2023-03-25T17:03:15.170Z,26.25
2023-03-25T17:06:04.643Z,25.33
2023-03-25T17:08:53.407Z,18.38
2023-03-25T17:11:38.590Z,24.27
2023-03-25T17:14:30.770Z,21.52
2023-03-25T17:17:22.130Z,26.77
2023-03-25T17:20:19.930Z,22.08
2023-03-25T17:23:17.337Z,26.58
2023-03-25T17:26:07.456Z,21.88
2023-03-25T17:28:52.879Z,27.58
2023-03-25T17:31:40.584Z,27.75
2023-03-25T17:34:27.796Z,32.30
2023-03-25T17:37:13.859Z,34.72
2023-03-25T17:40:06.741Z,23.50
2023-03-25T17:42:52.886Z,35.28
2023-03-25T17:45:37.854Z,26.13
2023-03-25T17:48:23.462Z,25.88
2023-03-25T17:51:12.214Z,33.38
2023-03-25T17:53:57.853Z,33.27
2023-03-25T17:56:43.455Z,29.23
2023-03-25T17:59:28.354Z,25.00
2023-03-25T18:02:15.587Z,40.70
2023-03-25T18:05:01.245Z,25.33
2023-03-25T18:07:46.423Z,28.30
2023-03-25T18:10:32.556Z,27.42
2023-03-25T18:13:18.494Z,27.00
2023-03-25T18:16:03.529Z,25.33
2023-03-25T18:18:48.962Z,26.48
2023-03-25T18:21:34.248Z,17.45
2023-03-25T18:24:19.779Z,24.75
2023-03-25T18:27:06.352Z,20.85
2023-03-25T18:29:51.603Z,21.23
2023-03-25T18:32:36.600Z,26.80
2023-03-25T18:35:22.214Z,25.85
2023-03-25T18:38:19.034Z,16.52
2023-03-25T18:41:04.939Z,13.88
2023-03-25T18:43:50.446Z,11.38
2023-03-25T18:46:36.400Z,19.92
2023-03-25T18:49:21.476Z,16.63
2023-03-25T18:52:06.642Z,12.85
2023-03-25T18:54:51.756Z,16.20
2023-03-25T18:57:36.701Z,16.60
2023-03-25T19:00:29.170Z,18.17
2023-03-25T19:03:15.648Z,13.38
2023-03-25T19:06:01.312Z,12.52
2023-03-25T19:08:47.231Z,17.10
2023-03-25T19:11:33.851Z,17.73
2023-03-25T19:14:19.350Z,18.27
2023-03-25T19:17:04.554Z,14.70
2023-03-25T19:19:49.647Z,13.52
2023-03-25T19:22:35.117Z,16.65
2023-03-25T19:25:20.560Z,27.63
2023-03-25T19:28:06.647Z,26.73
2023-03-25T19:30:54.479Z,23.40
2023-03-25T19:33:40.191Z,18.50
2023-03-25T19:36:25.787Z,19.20
2023-03-25T19:39:12.485Z,24.80
2023-03-25T19:41:57.700Z,27.52
2023-03-25T19:44:43.208Z,22.42
2023-03-25T19:47:28.754Z,23.52
2023-03-25T19:50:17.539Z,25.02
2023-03-25T19:53:06.114Z,27.10
2023-03-25T19:55:52.280Z,26.95
2023-03-25T19:58:37.405Z,25.42
2023-03-25T20:01:23.132Z,34.83
2023-03-25T20:04:08.360Z,18.48
2023-03-25T20:06:53.730Z,28.17
2023-03-25T20:09:40.766Z,22.73
2023-03-25T20:12:29.146Z,22.55
2023-03-25T20:15:16.237Z,27.33
2023-03-25T20:18:01.481Z,21.23
2023-03-25T20:20:46.710Z,26.02
2023-03-25T20:23:32.166Z,29.63
2023-03-25T20:26:17.104Z,32.28
2023-03-25T20:29:03.171Z,28.17
2023-03-25T20:31:48.178Z,34.10
2023-03-25T20:34:33.839Z,29.55
2023-03-25T20:37:18.878Z,31.58
2023-03-25T20:40:06.235Z,33.97
2023-03-25T20:42:51.627Z,33.95
2023-03-25T20:45:36.905Z,34.17
2023-03-25T20:48:23.184Z,28.52
2023-03-25T20:51:12.821Z,35.15
2023-03-25T20:53:57.909Z,29.25
2023-03-25T20:56:45.812Z,43.88
2023-03-25T20:59:31.351Z,36.13
2023-03-25T21:02:17.030Z,35.15
2023-03-25T21:05:03.573Z,36.45
2023-03-25T21:07:48.980Z,52.35
2023-03-25T21:10:34.034Z,42.17
2023-03-25T21:13:19.796Z,40.63
2023-03-25T21:16:05.689Z,40.85
2023-03-25T21:18:51.328Z,42.65
2023-03-25T21:21:37.428Z,40.83
2023-03-25T21:24:22.562Z,40.58
2023-03-25T21:27:07.652Z,38.13
2023-03-25T21:29:52.665Z,49.55
2023-03-25T21:32:38.984Z,39.15
2023-03-25T21:35:24.429Z,48.15
2023-03-25T21:38:09.745Z,39.67
2023-03-25T21:40:56.383Z,47.53
2023-03-25T21:43:42.334Z,37.08
2023-03-25T21:46:27.910Z,45.58
2023-03-25T21:49:13.265Z,55.78
2023-03-25T21:51:58.454Z,43.10
2023-03-25T21:54:48.393Z,43.25
2023-03-25T21:57:37.719Z,43.72
2023-03-25T22:00:24.687Z,45.10
2023-03-25T22:03:12.115Z,43.75
2023-03-25T22:06:02.068Z,52.85
2023-03-25T22:08:47.677Z,50.13
2023-03-25T22:11:35.175Z,50.08
2023-03-25T22:14:20.128Z,35.65
2023-03-25T22:17:05.695Z,40.08
2023-03-25T22:19:51.216Z,42.83
2023-03-25T22:22:36.840Z,38.50
2023-03-25T22:25:21.966Z,39.33
2023-03-25T22:28:07.227Z,44.22
2023-03-25T22:30:52.498Z,47.67
2023-03-25T22:33:38.546Z,48.75
2023-03-25T22:36:24.206Z,29.42
2023-03-25T22:39:10.416Z,43.83
2023-03-25T22:41:57.874Z,40.35
2023-03-25T22:44:44.784Z,42.08
2023-03-25T22:47:30.055Z,52.03
2023-03-25T22:50:15.482Z,38.40
2023-03-25T22:53:00.523Z,34.28
2023-03-25T22:55:53.258Z,39.08
2023-03-25T22:58:39.454Z,45.20
2023-03-25T23:01:26.479Z,43.55
2023-03-25T23:04:11.323Z,44.67
2023-03-25T23:07:07.282Z,47.42
2023-03-25T23:09:53.472Z,46.13
2023-03-25T23:12:38.536Z,44.42
2023-03-25T23:15:23.544Z,49.22
2023-03-25T23:18:09.860Z,45.22
2023-03-25T23:20:56.301Z,42.83
2023-03-25T23:23:52.668Z,40.53
2023-03-25T23:26:40.933Z,50.90
2023-03-25T23:29:26.039Z,60.58
2023-03-25T23:32:11.300Z,63.88
2023-03-25T23:34:58.327Z,55.55
2023-03-25T23:37:43.580Z,47.85
2023-03-25T23:40:28.932Z,51.85
2023-03-25T23:43:14.236Z,53.85
2023-03-25T23:45:59.910Z,38.67
2023-03-25T23:48:45.376Z,46.60
2023-03-25T23:51:34.020Z,33.92
2023-03-25T23:54:19.304Z,44.92
2023-03-25T23:57:04.654Z,35.28
2023-03-25T23:59:49.871Z,36.08
